Time;durP1;ratioP1;P1;durP2;ratioP2;P2;SDS_P1;SDS_P2;PMS_P1;PMS_P2;Temp;Humidity;BMP_temperature;BMP_pressure;BME280_temperature;BME280_humidity;BME280_pressure;Samples;Min_cycle;Max_cycle;Signal;HPM_P1;HPM_P2
2021/08/26 00:07:56;;;;;;;25.00;14.30;;;;;;;12.24;70.70;98266.72;2187884;81;20940;-77
2021/08/26 00:10:57;;;;;;;27.95;14.90;;;;;;;12.26;70.82;98258.86;2187425;81;21031;-78
2021/08/26 00:13:57;;;;;;;33.88;15.72;;;;;;;12.27;70.89;98257.55;2187821;81;21328;-78
2021/08/26 00:16:58;;;;;;;38.58;16.60;;;;;;;12.28;70.80;98257.98;2187987;81;21372;-78
2021/08/26 00:19:58;;;;;;;26.55;15.48;;;;;;;12.30;70.99;98247.51;2189089;81;20995;-77
2021/08/26 00:22:59;;;;;;;28.07;15.43;;;;;;;12.31;70.97;98247.50;2188817;81;20956;-77
2021/08/26 00:25:59;;;;;;;26.33;15.58;;;;;;;12.33;70.74;98238.33;2188582;81;20980;-77
2021/08/26 00:29:00;;;;;;;24.67;15.28;;;;;;;12.34;70.82;98233.53;2188800;81;21004;-78
2021/08/26 00:32:00;;;;;;;25.88;16.20;;;;;;;12.35;70.89;98227.42;2188637;81;21416;-77
2021/08/26 00:35:01;;;;;;;26.70;15.78;;;;;;;12.38;70.93;98224.78;2188828;81;20940;-78
2021/08/26 00:38:01;;;;;;;25.57;14.95;;;;;;;12.39;70.78;98216.05;2188789;81;20991;-78
2021/08/26 00:41:02;;;;;;;26.57;15.35;;;;;;;12.39;70.87;98210.38;2188427;81;21003;-77
2021/08/26 00:44:02;;;;;;;30.02;16.25;;;;;;;12.43;70.89;98208.62;2188654;81;20963;-77
2021/08/26 00:47:03;;;;;;;23.60;15.48;;;;;;;12.44;70.83;98206.43;2189197;81;21352;-77
2021/08/26 00:50:03;;;;;;;22.35;14.05;;;;;;;12.48;71.00;98207.28;2189143;81;20967;-77
2021/08/26 00:53:04;;;;;;;29.65;16.40;;;;;;;12.49;71.09;98211.64;2188994;81;20984;-76
2021/08/26 00:56:04;;;;;;;27.42;15.58;;;;;;;12.50;71.25;98205.53;2189028;81;20944;-76
2021/08/26 00:59:05;;;;;;;28.42;16.05;;;;;;;12.49;71.34;98203.78;2189036;81;20967;-77
2021/08/26 01:02:06;;;;;;;30.37;16.32;;;;;;;12.50;71.50;98194.61;2189053;81;21327;-79
2021/08/26 01:05:07;;;;;;;26.27;15.08;;;;;;;12.51;71.66;98191.55;2188849;81;20988;-79
2021/08/26 01:08:08;;;;;;;28.85;15.65;;;;;;;12.51;71.72;98188.94;2188966;81;21043;-79
2021/08/26 01:11:08;;;;;;;27.85;15.13;;;;;;;12.51;71.75;98188.50;2188735;81;21018;-77
2021/08/26 01:14:09;;;;;;;25.57;15.25;;;;;;;12.51;71.83;98183.27;2188926;81;21011;-77
2021/08/26 01:17:09;;;;;;;24.95;13.90;;;;;;;12.52;71.94;98174.53;2188615;81;21391;-76
2021/08/26 01:20:10;;;;;;;28.80;16.32;;;;;;;12.53;71.96;98174.96;2188855;81;20964;-77
2021/08/26 01:23:10;;;;;;;26.02;15.23;;;;;;;12.52;71.94;98167.98;2189006;81;20944;-78
2021/08/26 01:26:11;;;;;;;26.17;15.80;;;;;;;12.52;71.93;98160.58;2189089;81;20972;-77
2021/08/26 01:29:11;;;;;;;30.88;14.45;;;;;;;12.53;72.00;98154.02;2188853;81;21335;-77
2021/08/26 01:32:12;;;;;;;28.30;14.03;;;;;;;12.52;72.08;98154.90;2189263;81;21394;-76
2021/08/26 01:35:12;;;;;;;27.13;14.13;;;;;;;12.54;72.20;98149.21;2188439;81;20932;-78
2021/08/26 01:38:13;;;;;;;28.80;14.98;;;;;;;12.55;72.08;98140.48;2188818;81;20980;-77
2021/08/26 01:41:13;;;;;;;26.68;14.30;;;;;;;12.55;72.11;98147.02;2188370;81;20979;-77
2021/08/26 01:44:14;;;;;;;25.60;14.15;;;;;;;12.56;72.19;98135.67;2187964;81;20920;-78
2021/08/26 01:47:18;;;;;;;18.85;13.83;;;;;;;12.56;72.13;98138.73;2188031;81;20940;-77
2021/08/26 01:50:19;;;;;;;;;;;;;;;12.59;72.09;98138.27;2190714;81;21577;-78
2021/08/26 01:53:19;;;;;;;28.40;15.00;;;;;;;12.58;72.28;98135.66;2188023;81;20116;-78
2021/08/26 01:56:20;;;;;;;29.75;13.72;;;;;;;12.57;72.25;98133.48;2188315;81;20963;-78
2021/08/26 01:59:20;;;;;;;34.23;14.93;;;;;;;12.59;72.39;98127.80;2189086;81;20929;-76
2021/08/26 02:02:21;;;;;;;36.63;14.93;;;;;;;12.62;72.26;98121.66;2189167;81;21340;-77
2021/08/26 02:05:21;;;;;;;29.82;14.38;;;;;;;12.64;72.27;98115.98;2189049;81;20956;-79
2021/08/26 02:08:22;;;;;;;24.87;13.80;;;;;;;12.66;72.36;98117.70;2189043;81;20972;-78
2021/08/26 02:11:22;;;;;;;24.00;13.30;;;;;;;12.68;72.23;98110.70;2188928;81;20976;-78
2021/08/26 02:14:23;;;;;;;26.42;14.20;;;;;;;12.71;72.24;98104.57;2189286;81;20971;-78
2021/08/26 02:17:23;;;;;;;22.35;12.95;;;;;;;12.73;72.27;98104.12;2189418;81;20956;-78
2021/08/26 02:20:24;;;;;;;22.40;13.68;;;;;;;12.72;72.35;98094.09;2189338;81;20999;-79
2021/08/26 02:23:24;;;;;;;24.40;13.85;;;;;;;12.72;72.34;98092.77;2189200;81;20960;-78
2021/08/26 02:26:25;;;;;;;23.42;13.25;;;;;;;12.71;72.38;98089.73;2189028;81;21007;-79
2021/08/26 02:29:26;;;;;;;42.43;15.55;;;;;;;12.71;72.43;98079.26;2188338;81;21667;-79
2021/08/26 02:32:29;;;;;;;48.95;14.95;;;;;;;12.72;72.50;98083.61;2188278;81;20964;-78
2021/08/26 02:35:30;;;;;;;29.83;14.47;;;;;;;12.72;72.60;98079.69;2188384;81;20920;-78
2021/08/26 02:38:30;;;;;;;27.35;14.28;;;;;;;12.72;72.59;98077.06;2188476;81;21375;-78
2021/08/26 02:41:31;;;;;;;31.37;14.63;;;;;;;12.74;72.60;98075.30;2188097;81;21406;-77
2021/08/26 02:44:31;;;;;;;24.75;13.53;;;;;;;12.74;72.67;98073.99;2188572;81;21363;-78
2021/08/26 02:47:32;;;;;;;21.77;13.17;;;;;;;12.75;72.70;98080.97;2188513;81;20955;-78
2021/08/26 02:50:32;;;;;;;25.00;13.62;;;;;;;12.76;72.71;98074.84;2188753;81;21397;-78
2021/08/26 02:53:33;;;;;;;75.42;17.15;;;;;;;12.77;72.64;98070.48;2189178;81;20978;-76
2021/08/26 02:56:33;;;;;;;26.30;14.27;;;;;;;12.78;72.61;98066.11;2189180;81;20952;-79
2021/08/26 02:59:34;;;;;;;26.90;14.00;;;;;;;12.78;72.60;98065.66;2188818;81;21328;-78
2021/08/26 03:02:34;;;;;;;27.65;14.63;;;;;;;12.78;72.70;98064.80;2188098;81;20991;-79
2021/08/26 03:05:35;;;;;;;29.12;14.10;;;;;;;12.76;72.97;98063.06;2188801;81;21018;-78
2021/08/26 03:08:35;;;;;;;29.77;15.08;;;;;;;12.78;73.23;98059.56;2187462;81;20964;-78
2021/08/26 03:11:36;;;;;;;26.82;14.30;;;;;;;12.78;73.63;98062.18;2172187;82;21016;-77
2021/08/26 03:14:36;;;;;;;24.32;14.00;;;;;;;12.79;73.89;98058.23;2172736;81;21297;-78
2021/08/26 03:17:37;;;;;;;27.17;14.70;;;;;;;12.78;74.24;98045.16;2172627;81;20956;-78
2021/08/26 03:20:39;;;;;;;24.20;14.15;;;;;;;12.76;74.29;98047.34;2172627;81;20988;-79
2021/08/26 03:23:39;;;;;;;29.20;15.50;;;;;;;12.77;74.29;98046.91;2172684;81;21029;-78
2021/08/26 03:26:40;;;;;;;27.73;14.98;;;;;;;12.77;74.15;98039.05;2172726;81;20980;-80
2021/08/26 03:29:40;;;;;;;31.60;14.93;;;;;;;13.26;76.24;98038.59;2172595;81;20976;-78
2021/08/26 03:32:41;;;;;;;31.45;15.40;;;;;;;13.63;72.94;98041.18;2172697;81;21343;-78
2021/08/26 03:35:44;;;;;;;28.23;14.20;;;;;;;13.45;72.56;98041.41;2172549;81;21304;-78
2021/08/26 03:38:44;;;;;;;27.10;14.80;;;;;;;13.30;72.49;98035.92;2172228;81;21028;-77
2021/08/26 03:41:45;;;;;;;25.40;14.50;;;;;;;13.18;72.59;98038.68;2171936;81;21012;-78
2021/08/26 03:44:45;;;;;;;31.15;14.25;;;;;;;13.12;72.58;98038.72;2171816;81;21040;-77
2021/08/26 03:47:46;;;;;;;28.12;15.60;;;;;;;13.07;72.82;98035.28;2172309;82;21016;-77
2021/08/26 03:50:46;;;;;;;35.03;15.70;;;;;;;13.04;72.84;98034.00;2172129;81;20992;-76
2021/08/26 03:53:47;;;;;;;40.65;16.00;;;;;;;13.05;72.81;98034.43;2171876;81;21308;-78
2021/08/26 03:56:47;;;;;;;35.48;15.55;;;;;;;13.05;72.90;98027.87;2172528;81;21329;-77
2021/08/26 03:59:48;;;;;;;27.40;14.70;;;;;;;13.05;72.84;98028.74;2172132;81;21004;-77
2021/08/26 04:02:48;;;;;;;30.32;14.83;;;;;;;13.07;72.87;98031.34;2171590;81;21003;-78
2021/08/26 04:05:49;;;;;;;29.10;14.05;;;;;;;13.07;72.79;98023.05;2171445;81;20969;-80
2021/08/26 04:08:49;;;;;;;27.52;13.90;;;;;;;13.08;72.69;98020.85;2170843;81;20953;-78
2021/08/26 04:14:52;;;;;;;29.05;14.63;;;;;;;13.05;72.81;98026.56;2159146;82;21002;-79
2021/08/26 04:17:52;;;;;;;27.05;15.00;;;;;;;13.04;72.93;98028.77;2171113;81;20921;-79
2021/08/26 04:20:53;;;;;;;30.68;14.98;;;;;;;13.04;73.07;98019.59;2171907;81;20956;-78
2021/08/26 04:23:53;;;;;;;25.80;14.18;;;;;;;13.07;73.34;98026.11;2171783;81;20984;-81
2021/08/26 04:26:54;;;;;;;30.95;15.95;;;;;;;13.06;73.31;98034.41;2172463;81;21364;-79
2021/08/26 04:29:56;;;;;;;30.75;15.72;;;;;;;13.03;73.40;98042.75;2161183;82;20949;-78
2021/08/26 04:32:57;;;;;;;29.55;14.23;;;;;;;13.03;73.38;98041.44;2170925;81;21004;-79
2021/08/26 04:35:57;;;;;;;30.85;14.75;;;;;;;13.04;73.69;98039.24;2171052;81;21340;-79
2021/08/26 04:38:58;;;;;;;31.65;15.93;;;;;;;13.04;73.64;98037.48;2171119;81;21406;-78
2021/08/26 04:41:59;;;;;;;34.65;16.17;;;;;;;13.05;74.11;98035.30;2170688;82;21051;-79
2021/08/26 04:44:59;;;;;;;35.55;17.07;;;;;;;13.03;74.35;98035.75;2171128;81;21016;-80
2021/08/26 05:01:45;;;;;;;29.18;16.62;;;;;;;13.08;76.34;98023.91;2232632;79;23512;-79
2021/08/26 05:04:45;;;;;;;34.70;20.32;;;;;;;13.04;76.59;98015.22;2229451;80;20995;-79
2021/08/26 05:07:46;;;;;;;37.83;18.30;;;;;;;13.06;76.79;98014.77;2229736;79;20979;-80
2021/08/26 05:10:46;;;;;;;38.00;17.90;;;;;;;13.07;77.01;98003.84;2229270;80;21352;-82
2021/08/26 05:13:47;;;;;;;35.05;16.60;;;;;;;13.10;77.48;98002.94;2229863;80;20975;-79
2021/08/26 05:16:47;;;;;;;32.25;17.25;;;;;;;13.11;77.40;98000.73;2230231;80;20990;-80
2021/08/26 05:19:48;;;;;;;29.82;16.77;;;;;;;13.12;77.18;98013.83;2229917;79;20968;-80
2021/08/26 05:22:49;;;;;;;29.18;17.10;;;;;;;13.10;77.36;98003.80;2230100;80;20956;-81
2021/08/26 05:25:49;;;;;;;39.83;24.72;;;;;;;13.07;77.43;97999.91;2230011;79;20948;-80
2021/08/26 05:28:51;;;;;;;65.05;51.40;;;;;;;13.07;79.52;97993.36;2229595;80;20988;-79
2021/08/26 05:31:51;;;;;;;30.82;18.32;;;;;;;13.95;80.99;97992.23;2230283;80;21383;-81
2021/08/26 05:34:52;;;;;;;26.37;14.80;;;;;;;14.57;76.94;97986.42;2229755;79;21000;-80
2021/08/26 05:37:52;;;;;;;22.85;15.18;;;;;;;14.25;75.26;97992.64;2230562;80;21007;-80
2021/08/26 05:40:53;;;;;;;26.50;13.83;;;;;;;13.96;75.67;97995.72;2230309;79;20964;-81
2021/08/26 05:43:53;;;;;;;21.62;14.70;;;;;;;13.76;75.89;97995.98;2230883;79;20932;-80
2021/08/26 05:46:54;;;;;;;24.82;14.60;;;;;;;13.64;76.18;97994.84;2206239;80;21387;-81
2021/08/26 05:49:54;;;;;;;21.73;14.35;;;;;;;13.53;76.57;97991.06;2230658;79;21071;-81
2021/08/26 05:52:58;;;;;;;23.62;14.83;;;;;;;13.46;76.72;97995.09;2230498;80;20960;-79
2021/08/26 05:55:58;;;;;;;24.90;14.63;;;;;;;13.37;77.06;97996.95;2230239;79;21475;-79
2021/08/26 05:58:59;;;;;;;29.27;19.60;;;;;;;13.36;77.60;97998.28;2228895;79;21718;-80
2021/08/26 06:02:00;;;;;;;30.43;17.55;;;;;;;13.36;78.02;98003.52;2214536;79;20996;-79
2021/08/26 06:05:01;;;;;;;25.02;14.55;;;;;;;13.33;78.26;98005.73;2214850;80;21320;-79
2021/08/26 06:08:01;;;;;;;29.85;14.68;;;;;;;13.32;78.23;98007.94;2211090;80;20980;-82
2021/08/26 06:11:01;;;;;;;21.40;13.75;;;;;;;13.31;78.15;98001.41;2209375;80;21657;-78
2021/08/26 06:14:02;;;;;;;25.77;13.38;;;;;;;13.33;78.42;98007.48;2211531;80;20921;-80
2021/08/26 06:17:02;;;;;;;25.80;13.58;;;;;;;13.32;78.61;98014.93;2211689;80;20976;-80
2021/08/26 06:20:03;;;;;;;23.22;14.33;;;;;;;13.33;78.74;98013.60;2214261;80;20928;-80
2021/08/26 06:23:03;;;;;;;21.93;13.20;;;;;;;13.32;78.53;98017.55;2214293;80;21431;-79
2021/08/26 06:26:04;;;;;;;20.20;12.93;;;;;;;13.34;79.08;98015.78;2212740;80;20921;-79
2021/08/26 06:29:04;;;;;;;21.85;12.95;;;;;;;13.31;79.11;98015.81;2213183;80;21005;-79
2021/08/26 06:32:05;;;;;;;23.42;14.47;;;;;;;13.27;79.16;98012.36;2213234;80;20972;-80
2021/08/26 06:35:06;;;;;;;20.92;11.80;;;;;;;13.28;79.34;98011.48;2213116;80;21298;-79
2021/08/26 06:38:07;;;;;;;25.68;14.23;;;;;;;13.30;79.38;98009.70;2213131;80;21024;-81
2021/08/26 06:41:07;;;;;;;21.15;12.82;;;;;;;13.32;79.51;98010.55;2212519;80;20952;-79
2021/08/26 06:44:08;;;;;;;18.05;12.73;;;;;;;13.39;79.46;98012.22;2213651;79;20964;-79
2021/08/26 06:47:08;;;;;;;23.02;15.40;;;;;;;13.45;79.82;98007.78;2215367;80;20948;-79
2021/08/26 06:50:09;;;;;;;28.75;16.75;;;;;;;13.71;80.16;98009.61;2214041;80;20972;-79
2021/08/26 06:53:09;;;;;;;32.15;15.50;;;;;;;13.65;79.57;98013.63;2212624;80;21372;-79
2021/08/26 06:56:10;;;;;;;22.70;14.98;;;;;;;13.62;79.40;98002.73;2212752;80;20960;-79
2021/08/26 06:59:11;;;;;;;29.65;16.75;;;;;;;13.69;79.38;98004.38;2211087;80;21035;-78
2021/08/26 07:02:11;;;;;;;22.25;13.98;;;;;;;13.77;79.40;98001.66;2210965;80;21024;-80
2021/08/26 07:05:12;;;;;;;25.70;14.20;;;;;;;13.82;79.26;97999.83;2214561;80;21372;-79
2021/08/26 07:08:12;;;;;;;27.85;14.63;;;;;;;13.85;79.24;97994.98;2213537;80;21021;-79
2021/08/26 07:11:14;;;;;;;27.98;14.23;;;;;;;13.88;79.26;97996.28;2213581;80;20996;-80
2021/08/26 07:14:14;;;;;;;19.20;12.68;;;;;;;13.90;79.35;97999.75;2208188;80;21395;-80
2021/08/26 07:17:15;;;;;;;26.33;13.50;;;;;;;13.89;79.04;98000.20;2212834;80;20971;-79
2021/08/26 07:20:15;;;;;;;21.27;13.65;;;;;;;13.95;79.35;97993.55;2209386;80;20959;-80
2021/08/26 07:23:16;;;;;;;24.12;12.85;;;;;;;14.03;79.41;98002.16;2213538;80;20972;-81
2021/08/26 07:26:19;;;;;;;21.15;13.20;;;;;;;14.03;79.40;97997.36;2213240;80;21659;-80
2021/08/26 07:29:19;;;;;;;20.10;11.45;;;;;;;14.06;79.43;98000.39;2213833;80;21071;-80
2021/08/26 07:32:19;;;;;;;61.02;26.42;;;;;;;14.10;79.30;97995.51;2210589;80;21577;-80
2021/08/26 07:35:25;;;;;;;23.95;13.00;;;;;;;14.66;84.87;97992.83;2215629;80;20999;-81
2021/08/26 07:38:26;;;;;;;23.22;13.30;;;;;;;15.41;79.56;97993.16;2214180;80;20932;-82
2021/08/26 07:41:29;;;;;;;17.12;12.20;;;;;;;15.41;77.84;97990.53;2213929;80;20964;-82
2021/08/26 07:44:29;;;;;;;17.05;11.95;;;;;;;15.25;77.27;97984.27;2215530;80;21012;-81
2021/08/26 07:47:29;;;;;;;20.05;12.65;;;;;;;15.15;77.17;97984.05;2212916;80;20963;-82
2021/08/26 07:50:35;;;;;;;15.05;11.35;;;;;;;15.08;77.21;97983.75;2212639;79;20936;-81
2021/08/26 07:53:36;;;;;;;18.65;12.73;;;;;;;15.09;77.33;97988.11;2215222;80;21463;-81
2021/08/26 07:56:38;;;;;;;22.05;14.50;;;;;;;15.09;77.23;97989.42;2212649;80;20961;-80
2021/08/26 07:59:39;;;;;;;21.95;12.58;;;;;;;15.03;77.26;97992.17;2214204;80;21419;-80
2021/08/26 08:02:39;;;;;;;16.10;11.25;;;;;;;15.05;77.34;97989.52;2214821;80;20980;-80
2021/08/26 08:05:40;;;;;;;15.65;11.75;;;;;;;15.14;77.41;97986.25;2218600;80;21004;-80
2021/08/26 08:08:40;;;;;;;15.15;11.33;;;;;;;15.30;77.44;97986.36;2216813;80;21659;-79
2021/08/26 08:11:41;;;;;;;13.85;11.53;;;;;;;15.53;76.90;97987.19;2220261;80;20936;-82
2021/08/26 08:14:43;;;;;;;23.65;12.47;;;;;;;15.80;76.73;97984.46;2217832;80;20972;-81
2021/08/26 08:17:43;;;;;;;14.47;11.75;;;;;;;15.85;76.21;97983.05;2219338;79;20936;-81
2021/08/26 08:20:44;;;;;;;15.85;11.93;;;;;;;15.86;76.13;97983.45;2217789;80;20948;-79
2021/08/26 08:23:44;;;;;;;20.12;12.65;;;;;;;15.79;76.06;97986.68;2215121;80;20933;-81
2021/08/26 08:26:45;;;;;;;21.93;16.45;;;;;;;15.78;76.06;97977.05;2216979;80;21059;-80
2021/08/26 08:29:45;;;;;;;15.90;11.63;;;;;;;15.70;76.40;97972.87;2215756;79;21055;-83
2021/08/26 08:32:46;;;;;;;21.33;12.23;;;;;;;15.63;76.68;97978.71;2216141;80;20973;-80
2021/08/26 08:35:46;;;;;;;19.12;14.23;;;;;;;15.55;76.70;97979.27;2215121;80;21004;-81
2021/08/26 08:38:47;;;;;;;11.65;10.38;;;;;;;15.61;77.00;97976.56;2216039;80;20984;-81
2021/08/26 08:41:47;;;;;;;16.95;11.75;;;;;;;15.63;76.91;97980.03;2220234;80;21004;-79
2021/08/26 08:44:48;;;;;;;14.23;11.95;;;;;;;15.59;76.89;97975.70;2217655;80;20991;-81
2021/08/26 08:47:48;;;;;;;20.72;12.25;;;;;;;15.53;76.89;97982.38;2217915;80;21395;-80
2021/08/26 08:50:49;;;;;;;14.68;11.28;;;;;;;15.51;77.36;97979.78;2219237;80;21040;-80
2021/08/26 08:53:49;;;;;;;17.25;11.68;;;;;;;15.48;77.47;97977.66;2220126;80;21003;-81
2021/08/26 08:56:50;;;;;;;15.48;11.75;;;;;;;15.44;77.76;97973.37;2218606;80;21340;-79
2021/08/26 08:59:50;;;;;;;17.35;11.50;;;;;;;15.42;77.56;97978.66;2214374;80;21020;-79
2021/08/26 09:02:51;;;;;;;15.03;11.40;;;;;;;15.38;77.79;97978.31;2212728;79;20968;-80
2021/08/26 09:05:51;;;;;;;12.00;9.53;;;;;;;15.35;78.33;97976.20;2213316;80;20972;-81
2021/08/26 09:08:52;;;;;;;19.10;12.07;;;;;;;15.35;78.33;97976.20;2213385;80;21035;-79
2021/08/26 09:11:53;;;;;;;15.65;10.68;;;;;;;15.27;78.08;97978.98;2213128;80;20996;-80
2021/08/26 09:14:53;;;;;;;16.25;11.35;;;;;;;15.26;78.46;97978.12;2213029;80;20984;-81
2021/08/26 09:17:54;;;;;;;16.50;12.37;;;;;;;15.27;78.46;97981.61;2212806;80;20941;-81
2021/08/26 09:20:54;;;;;;;13.53;11.30;;;;;;;15.32;78.92;97982.83;2213005;80;20972;-81
2021/08/26 09:23:55;;;;;;;14.78;11.57;;;;;;;15.37;78.64;97990.17;2212558;80;20991;-80
2021/08/26 09:26:55;;;;;;;14.00;11.45;;;;;;;15.36;78.73;97993.70;2211734;80;20940;-80
2021/08/26 09:29:56;;;;;;;13.72;11.22;;;;;;;15.28;78.74;97995.17;2211818;80;21058;-77
2021/08/26 09:32:56;;;;;;;15.48;10.93;;;;;;;15.17;79.12;97990.59;2212188;80;21280;-80
2021/08/26 09:35:57;;;;;;;14.68;11.08;;;;;;;15.10;79.37;97990.28;2212075;80;20941;-78
2021/08/26 09:38:57;;;;;;;17.62;12.50;;;;;;;15.08;79.62;97989.00;2212209;80;20979;-77
2021/08/26 09:42:01;;;;;;;14.33;10.60;;;;;;;15.10;79.93;97979.33;2210966;80;21304;-79
2021/08/26 09:45:00;;;;;;;16.07;11.48;;;;;;;15.20;79.67;97983.50;2212048;80;20909;-79
2021/08/26 09:48:00;;;;;;;13.98;11.30;;;;;;;15.28;80.52;97986.84;2212178;79;20940;-79
2021/08/26 09:51:01;;;;;;;13.95;12.20;;;;;;;15.37;79.60;97988.86;2211384;80;21015;-81
2021/08/26 09:54:02;;;;;;;14.40;11.70;;;;;;;15.50;79.13;97986.39;2212791;80;20972;-81
2021/08/26 09:57:02;;;;;;;21.00;15.32;;;;;;;15.70;79.01;97988.20;2211176;80;20909;-81
2021/08/26 10:00:03;;;;;;;14.65;11.28;;;;;;;15.79;78.42;97985.36;2211673;80;20972;-80
2021/08/26 10:03:03;;;;;;;12.98;10.93;;;;;;;15.76;78.51;97989.37;2214006;80;20937;-78
2021/08/26 10:06:04;;;;;;;11.55;10.35;;;;;;;15.72;78.53;97985.09;2212347;80;21305;-78
2021/08/26 10:09:04;;;;;;;16.42;10.35;;;;;;;15.69;78.53;97981.20;2212122;80;21359;-77
2021/08/26 10:12:05;;;;;;;13.83;11.10;;;;;;;15.69;78.71;97982.97;2210107;80;20944;-80
2021/08/26 10:15:05;;;;;;;12.03;9.80;;;;;;;15.77;78.95;97981.03;2217104;80;20932;-80
2021/08/26 10:18:06;;;;;;;10.78;9.68;;;;;;;15.85;78.74;97986.54;2219947;79;20960;-81
2021/08/26 10:21:08;;;;;;;8.43;7.62;;;;;;;15.90;78.60;97986.44;2219355;79;20930;-80
2021/08/26 10:24:08;;;;;;;8.98;7.92;;;;;;;15.79;78.50;97981.86;2217944;79;21071;-80
2021/08/26 10:27:09;;;;;;;10.00;8.78;;;;;;;15.64;78.36;97987.02;2217860;80;21399;-80
2021/08/26 10:30:10;;;;;;;8.93;7.53;;;;;;;15.61;78.63;97994.98;2215220;80;21068;-79
2021/08/26 10:33:10;;;;;;;8.53;7.42;;;;;;;15.57;78.86;97982.31;2213293;80;20987;-80
2021/08/26 10:36:15;;;;;;;8.65;7.40;;;;;;;15.68;78.64;97979.48;2213586;79;20925;-81
2021/08/26 10:39:15;;;;;;;7.40;6.70;;;;;;;15.83;78.66;97981.77;2218497;80;20925;-81
2021/08/26 10:42:16;;;;;;;6.92;6.22;;;;;;;15.97;78.76;97985.84;2216115;80;20968;-78
2021/08/26 10:45:21;;;;;;;10.78;6.75;;;;;;;15.99;78.16;97985.36;2213858;80;20946;-79
2021/08/26 10:48:20;;;;;;;11.35;6.47;;;;;;;15.94;78.18;97982.83;2213564;80;21000;-80
2021/08/26 10:51:20;;;;;;;7.58;6.15;;;;;;;15.98;78.19;97984.48;2216417;80;21066;-80
2021/08/26 10:54:21;;;;;;;8.08;5.55;;;;;;;16.10;78.06;97986.83;2215071;80;21321;-80
2021/08/26 10:57:21;;;;;;;6.08;5.35;;;;;;;16.33;77.67;97979.69;2216029;79;20972;-79
2021/08/26 11:00:22;;;;;;;6.35;5.65;;;;;;;16.61;77.27;97978.56;2217626;80;21026;-80
2021/08/26 11:03:22;;;;;;;7.33;6.12;;;;;;;16.87;76.82;97975.27;2213626;80;21015;-79
2021/08/26 11:06:23;;;;;;;6.60;5.37;;;;;;;17.08;76.05;97968.09;2212688;80;21719;-79
2021/08/26 11:09:23;;;;;;;7.47;5.83;;;;;;;17.21;75.07;97972.56;2212505;80;21063;-79
2021/08/26 11:12:24;;;;;;;6.28;5.67;;;;;;;17.18;74.71;97971.33;2213342;80;21015;-80
2021/08/26 11:15:25;;;;;;;6.03;5.45;;;;;;;17.17;73.95;97971.78;2214924;80;21316;-79
2021/08/26 11:18:25;;;;;;;5.87;5.05;;;;;;;17.26;74.05;97971.11;2208551;80;21000;-79
2021/08/26 11:21:26;;;;;;;8.18;5.60;;;;;;;17.27;74.04;97978.11;2206260;80;21412;-80
2021/08/26 11:24:27;;;;;;;7.08;5.50;;;;;;;17.22;73.94;97974.75;2208936;80;20925;-81
2021/08/26 11:27:28;;;;;;;6.15;5.58;;;;;;;17.22;73.55;97974.75;2214221;80;21355;-80
2021/08/26 11:30:28;;;;;;;7.25;5.50;;;;;;;17.27;73.64;97977.66;2214337;80;20976;-81
2021/08/26 11:33:29;;;;;;;6.62;5.80;;;;;;;17.49;73.11;97981.89;2214314;80;20944;-79
2021/08/26 11:36:29;;;;;;;6.45;5.85;;;;;;;17.61;72.62;97988.13;2211618;80;21379;-80
2021/08/26 11:39:30;;;;;;;6.72;6.05;;;;;;;17.71;72.57;97983.47;2211302;80;20988;-79
2021/08/26 11:42:36;;;;;;;6.53;5.92;;;;;;;17.80;72.22;97980.09;2208839;80;21365;-80
2021/08/26 11:45:40;;;;;;;7.45;6.75;;;;;;;17.96;71.92;97979.61;2208980;80;20969;-80
2021/08/26 11:48:39;;;;;;;6.60;5.90;;;;;;;18.03;71.71;97971.91;2206277;80;21456;-80
2021/08/26 11:51:39;;;;;;;6.53;5.92;;;;;;;18.03;70.86;97967.48;2210703;80;20961;-80
2021/08/26 11:54:40;;;;;;;7.60;6.80;;;;;;;18.17;70.89;97973.64;2212483;80;20980;-80
2021/08/26 11:57:42;;;;;;;7.53;6.83;;;;;;;18.30;70.49;97982.06;2211742;80;21337;-80
2021/08/26 12:00:42;;;;;;;8.25;7.37;;;;;;;18.33;70.44;97976.22;2213729;79;21071;-80
2021/08/26 12:03:43;;;;;;;7.92;7.08;;;;;;;18.36;70.20;97975.27;2204617;80;20945;-81
2021/08/26 12:06:43;;;;;;;8.13;6.67;;;;;;;18.39;69.26;97974.70;2206990;80;20929;-79
2021/08/26 12:09:44;;;;;;;8.13;6.78;;;;;;;18.44;68.91;97979.83;2208970;80;20985;-79
2021/08/26 12:12:44;;;;;;;7.95;7.17;;;;;;;18.35;69.43;97977.04;2207829;80;21285;-80
2021/08/26 12:15:45;;;;;;;9.30;7.20;;;;;;;18.40;69.71;97979.53;2210779;80;20984;-82
2021/08/26 12:18:45;;;;;;;13.13;6.58;;;;;;;18.53;69.10;97974.70;2208846;80;20956;-79
2021/08/26 12:21:46;;;;;;;8.00;6.45;;;;;;;18.88;69.20;97972.19;2203980;80;20983;-80
2021/08/26 12:24:46;;;;;;;7.65;6.60;;;;;;;19.13;67.93;97974.85;2206650;80;21344;-79
2021/08/26 12:27:49;;;;;;;6.85;6.25;;;;;;;19.20;67.34;97977.22;2196329;80;21319;-79
2021/08/26 12:30:49;;;;;;;7.17;5.35;;;;;;;19.19;66.72;97976.81;2208122;80;20984;-79
2021/08/26 12:33:50;;;;;;;6.75;5.42;;;;;;;19.00;65.81;97971.30;2209327;80;21035;-78
2021/08/26 12:36:50;;;;;;;6.53;5.87;;;;;;;18.88;65.61;97961.61;2209647;80;20921;-78
2021/08/26 12:39:51;;;;;;;7.83;5.05;;;;;;;19.18;66.84;97967.16;2207480;80;20968;-80
2021/08/26 12:42:51;;;;;;;5.42;4.83;;;;;;;19.58;65.70;97955.97;2207440;80;20976;-80
2021/08/26 12:45:52;;;;;;;6.35;5.60;;;;;;;19.79;64.38;97957.38;2210444;80;20969;-80
2021/08/26 12:48:53;;;;;;;6.17;5.42;;;;;;;19.64;64.57;97951.77;2209524;80;21407;-80
2021/08/26 12:51:53;;;;;;;12.20;5.40;;;;;;;19.66;64.73;97949.92;2205992;80;20992;-80
2021/08/26 12:54:54;;;;;;;6.10;5.22;;;;;;;19.50;64.53;97958.48;2207715;80;20948;-80
2021/08/26 12:57:54;;;;;;;5.28;4.78;;;;;;;19.37;65.33;97950.14;2208942;80;20976;-80
2021/08/26 13:00:58;;;;;;;5.37;4.83;;;;;;;19.30;63.92;97956.58;2208283;80;21059;-79
2021/08/26 13:03:58;;;;;;;6.42;5.65;;;;;;;19.20;65.27;97948.13;2212971;80;21016;-79
2021/08/26 13:06:59;;;;;;;8.40;5.40;;;;;;;19.23;64.42;97948.47;2210876;80;21000;-80
2021/08/26 13:09:59;;;;;;;8.70;5.87;;;;;;;19.30;64.78;97947.31;2210922;80;20963;-79
2021/08/26 13:13:00;;;;;;;7.30;5.87;;;;;;;19.41;65.10;97940.70;2215028;80;20956;-79
2021/08/26 13:16:00;;;;;;;6.55;5.65;;;;;;;19.46;64.11;97936.56;2209773;80;20968;-79
2021/08/26 13:19:01;;;;;;;9.13;6.83;;;;;;;19.53;64.21;97930.60;2207223;80;21345;-78
2021/08/26 13:22:01;;;;;;;11.95;7.08;;;;;;;19.58;64.11;97934.80;2213227;80;20956;-79
2021/08/26 13:25:05;;;;;;;8.38;7.58;;;;;;;19.59;63.82;97933.01;2206965;80;20984;-79
2021/08/26 13:28:04;;;;;;;8.93;8.03;;;;;;;19.46;63.11;97936.56;2206696;80;21161;-78
2021/08/26 13:31:05;;;;;;;24.25;8.53;;;;;;;19.20;63.18;97941.97;2209358;80;21340;-79
2021/08/26 13:34:06;;;;;;;11.18;7.03;;;;;;;19.16;63.93;97932.42;2214665;80;20944;-79
2021/08/26 13:37:06;;;;;;;9.43;8.50;;;;;;;19.23;63.20;97928.63;2212520;80;20964;-79
2021/08/26 13:40:07;;;;;;;8.23;7.15;;;;;;;19.23;64.10;97914.08;2211491;80;20999;-79
2021/08/26 13:43:07;;;;;;;10.00;7.85;;;;;;;19.20;63.58;97921.66;2207464;80;20972;-78
2021/08/26 13:46:08;;;;;;;6.97;6.28;;;;;;;19.21;64.58;97917.23;2212635;80;20940;-78
2021/08/26 13:49:08;;;;;;;14.28;7.55;;;;;;;19.34;63.77;97912.75;2210622;80;21024;-78
2021/08/26 13:52:09;;;;;;;9.60;7.00;;;;;;;19.38;64.08;97909.52;2213062;80;20917;-79
2021/08/26 13:55:09;;;;;;;7.20;6.60;;;;;;;19.51;63.48;97908.12;2206830;79;20928;-79
2021/08/26 13:58:10;;;;;;;11.28;7.20;;;;;;;19.66;63.66;97899.63;2206425;80;21308;-79
2021/08/26 14:01:10;;;;;;;7.20;6.50;;;;;;;19.77;61.95;97896.55;2213655;80;21350;-78
2021/08/26 14:04:11;;;;;;;6.92;6.15;;;;;;;19.77;62.32;97899.66;2204755;80;21043;-79
2021/08/26 14:07:11;;;;;;;6.87;5.83;;;;;;;19.69;62.39;97907.44;2206984;80;20929;-80
2021/08/26 14:10:12;;;;;;;7.05;6.35;;;;;;;19.58;61.98;97912.30;2207988;80;21319;-80
2021/08/26 14:13:13;;;;;;;6.95;5.83;;;;;;;19.41;62.63;97921.31;2208221;80;20933;-79
2021/08/26 14:16:14;;;;;;;8.80;5.67;;;;;;;19.32;62.43;97922.53;2207108;80;21395;-79
2021/08/26 14:19:14;;;;;;;5.92;5.35;;;;;;;19.17;63.32;97920.45;2210351;80;21012;-80